Time;durP1;ratioP1;P1;durP2;ratioP2;P2;SDS_P1;SDS_P2;PMS_P1;PMS_P2;Temp;Humidity;BMP_temperature;BMP_pressure;BME280_temperature;BME280_humidity;BME280_pressure;Samples;Min_cycle;Max_cycle;Signal;HPM_P1;HPM_P2
2022/06/27 00:00:00;;;;;;;7.87;7.17;;;19.70;99.90;19.10;100678;;;;569864;248;24100;-80
2022/06/27 00:02:31;;;;;;;7.67;6.90;;;19.70;99.90;19.20;100685;;;;567700;248;24103;-78
2022/06/27 00:04:56;;;;;;;7.87;7.17;;;19.70;99.90;19.20;100685;;;;569745;248;24084;-78
2022/06/27 00:07:24;;;;;;;7.53;6.83;;;19.80;99.90;19.20;100689;;;;567850;248;24143;-77
2022/06/27 00:09:56;;;;;;;8.57;7.77;;;19.80;99.90;19.20;100688;;;;567738;248;24076;-85
2022/06/27 00:12:21;;;;;;;13.17;7.20;;;19.70;99.90;19.10;100690;;;;569641;248;24137;-83
2022/06/27 00:14:53;;;;;;;7.10;6.40;;;19.70;99.90;19.20;100692;;;;569991;248;24083;-83
2022/06/27 00:17:17;;;;;;;8.03;7.33;;;19.70;99.90;19.20;100685;;;;569341;248;24096;-85
2022/06/27 00:19:45;;;;;;;7.67;7.07;;;19.80;99.90;19.30;100686;;;;569920;248;24124;-84
2022/06/27 00:22:13;;;;;;;7.63;6.87;;;19.80;99.90;19.30;100697;;;;569854;248;24080;-85
2022/06/27 00:24:41;;;;;;;7.63;6.93;;;19.80;99.90;19.30;100688;;;;567686;248;24133;-81
2022/06/27 00:27:09;;;;;;;9.50;7.07;;;19.90;99.90;19.30;100685;;;;568071;248;24092;-79
2022/06/27 00:29:40;;;;;;;10.23;8.17;;;19.90;99.90;19.30;100688;;;;569418;247;24119;-77
2022/06/27 00:32:06;;;;;;;9.20;7.20;;;19.90;99.90;19.30;100680;;;;573947;248;24079;-79
2022/06/27 00:34:34;;;;;;;8.30;7.50;;;19.90;99.90;19.30;100679;;;;571481;248;24161;-79
2022/06/27 00:37:02;;;;;;;7.93;7.03;;;19.90;99.90;19.30;100676;;;;571322;248;24068;-76
2022/06/27 00:39:30;;;;;;;7.73;7.13;;;19.80;99.90;19.20;100677;;;;568446;248;24081;-77
2022/06/27 00:41:58;;;;;;;8.73;7.30;;;19.80;99.90;19.20;100678;;;;570668;248;24060;-85
2022/06/27 00:44:34;;;;;;;8.27;7.47;;;19.80;99.90;19.10;100680;;;;568636;248;24091;-84
2022/06/27 00:46:59;;;;;;;7.93;7.13;;;19.70;99.90;19.10;100684;;;;570415;248;24135;-85
2022/06/27 00:49:30;;;;;;;8.33;7.40;;;19.60;99.90;19.00;100685;;;;570098;248;24118;-81
2022/06/27 00:51:55;;;;;;;8.77;8.07;;;19.60;99.90;19.00;100680;;;;569768;248;24117;-79
2022/06/27 00:54:23;;;;;;;7.47;6.83;;;19.50;99.90;18.90;100685;;;;570321;248;23123;-78
2022/06/27 00:56:51;;;;;;;8.13;7.30;;;19.50;99.90;18.90;100681;;;;569851;248;24132;-77
2022/06/27 00:59:19;;;;;;;7.87;7.13;;;19.50;99.90;19.00;100687;;;;569784;248;24201;-86
2022/06/27 01:01:50;;;;;;;8.33;7.40;;;19.50;99.90;19.00;100693;;;;569957;248;24073;-86
2022/06/27 01:04:15;;;;;;;7.50;6.90;;;19.50;99.90;18.90;100685;;;;569737;248;24117;-80
2022/06/27 01:06:43;;;;;;;8.30;7.70;;;19.50;99.90;18.90;100682;;;;569761;248;24077;-86
2022/06/27 01:09:11;;;;;;;9.07;8.17;;;19.50;99.90;18.80;100687;;;;569637;248;24088;-82
2022/06/27 01:11:39;;;;;;;8.53;7.73;;;19.40;99.90;18.70;100686;;;;569539;248;24077;-79
2022/06/27 01:14:07;;;;;;;8.23;7.63;;;19.30;99.90;18.60;100679;;;;567493;248;24152;-78
2022/06/27 01:16:34;;;;;;;7.93;7.10;;;19.20;99.90;18.60;100691;;;;569386;248;24097;-79
2022/06/27 01:19:03;;;;;;;8.37;7.60;;;19.10;99.90;18.50;100682;;;;569479;248;24137;-80
2022/06/27 01:21:32;;;;;;;9.20;8.33;;;19.00;99.90;18.40;100687;;;;567262;248;24085;-77
2022/06/27 01:24:00;;;;;;;9.07;8.37;;;18.90;99.90;18.40;100684;;;;575333;248;24079;-80
2022/06/27 01:26:32;;;;;;;9.20;8.37;;;19.00;99.90;18.30;100686;;;;567649;248;25143;-81
2022/06/27 01:28:56;;;;;;;9.23;8.43;;;18.90;99.90;18.30;100688;;;;568914;248;24122;-80
2022/06/27 01:31:24;;;;;;;9.80;8.80;;;18.90;99.90;18.30;100682;;;;567631;248;24167;-77
2022/06/27 01:33:51;;;;;;;9.83;8.83;;;18.90;99.90;18.30;100681;;;;569670;248;24096;-80
2022/06/27 01:39:09;;;;;;;8.60;7.80;;;18.90;99.90;18.30;100683;;;;569700;248;24104;-78
2022/06/27 01:41:34;;;;;;;9.20;7.73;;;18.80;99.90;18.40;100677;;;;573403;247;24125;-77
2022/06/27 01:44:06;;;;;;;8.80;7.60;;;18.90;99.90;18.40;100677;;;;568688;248;24112;-86
2022/06/27 01:46:51;;;;;;;9.17;7.93;;;19.00;99.90;18.40;100680;;;;567290;248;24076;-77
2022/06/27 01:49:19;;;;;;;7.83;7.10;;;19.00;99.90;18.40;100668;;;;555114;248;24199;-78
2022/06/27 01:51:47;;;;;;;10.40;7.73;;;19.00;99.90;18.40;100671;;;;578658;247;24117;-76
2022/06/27 01:54:15;;;;;;;8.47;7.67;;;19.00;99.90;18.40;100674;;;;569819;248;24105;-77
2022/06/27 01:56:46;;;;;;;8.27;7.47;;;19.00;99.90;18.40;100679;;;;567264;248;24082;-77
2022/06/27 01:59:14;;;;;;;11.37;8.20;;;18.90;99.90;18.30;100677;;;;569509;248;24161;-77
2022/06/27 02:01:40;;;;;;;11.70;8.23;;;18.80;99.90;18.20;100679;;;;569634;248;24118;-77
2022/06/27 02:04:08;;;;;;;9.03;8.17;;;18.80;99.90;18.20;100669;;;;578548;248;24151;-78
2022/06/27 02:06:41;;;;;;;13.03;8.90;;;18.70;99.90;18.10;100668;;;;569719;248;24152;-79
2022/06/27 02:09:06;;;;;;;9.17;8.20;;;18.60;99.90;18.10;100670;;;;565982;248;24082;-80
2022/06/27 02:11:34;;;;;;;9.00;8.20;;;18.60;99.90;18.10;100673;;;;570033;248;24144;-78
2022/06/27 02:14:05;;;;;;;9.40;8.57;;;18.60;99.90;18.10;100669;;;;570018;248;24092;-78
2022/06/27 02:16:30;;;;;;;9.60;8.43;;;18.60;99.90;18.10;100666;;;;568962;248;24097;-84
2022/06/27 02:18:59;;;;;;;8.83;8.03;;;18.60;99.90;18.10;100660;;;;569760;248;24066;-78
2022/06/27 02:21:30;;;;;;;8.77;8.03;;;18.60;99.90;18.10;100664;;;;566744;248;24134;-77
2022/06/27 02:23:55;;;;;;;8.77;8.07;;;18.60;99.90;18.10;100659;;;;569609;248;24095;-79
2022/06/27 02:26:26;;;;;;;9.43;8.73;;;18.60;99.90;18.10;100658;;;;578353;248;24163;-78
2022/06/27 02:28:54;;;;;;;9.53;8.63;;;18.60;99.90;18.00;100654;;;;569372;248;24097;-79
2022/06/27 02:31:24;;;;;;;9.13;8.33;;;18.60;99.90;18.00;100655;;;;569760;248;24073;-77
2022/06/27 02:33:49;;;;;;;8.70;8.00;;;18.60;99.90;18.00;100663;;;;572475;248;24099;-79
2022/06/27 02:36:17;;;;;;;9.30;8.23;;;18.60;99.90;18.10;100659;;;;569229;248;23130;-78
2022/06/27 02:38:45;;;;;;;9.50;8.50;;;18.60;99.90;18.10;100663;;;;577613;248;24154;-79
2022/06/27 02:41:17;;;;;;;8.90;8.07;;;18.70;99.90;18.10;100658;;;;569402;248;24092;-81
2022/06/27 02:43:47;;;;;;;10.13;8.33;;;18.60;99.90;18.20;100661;;;;569452;248;24108;-77
2022/06/27 02:46:15;;;;;;;9.53;8.07;;;18.70;99.90;18.30;100658;;;;569451;248;24126;-78
2022/06/27 02:48:43;;;;;;;8.13;7.33;;;18.80;99.90;18.40;100659;;;;569547;248;24125;-78
2022/06/27 02:51:11;;;;;;;12.73;7.77;;;18.90;99.90;18.40;100666;;;;569408;247;24183;-79
2022/06/27 02:53:39;;;;;;;8.60;7.83;;;18.90;99.90;18.50;100661;;;;570741;248;24189;-78
2022/06/27 02:56:07;;;;;;;8.70;7.90;;;19.00;99.90;18.50;100664;;;;578265;248;24158;-84
2022/06/27 02:58:47;;;;;;;8.30;7.60;;;19.10;99.90;18.60;100671;;;;570568;248;24175;-82
2022/06/27 03:01:15;;;;;;;10.43;8.47;;;19.20;99.90;18.60;100667;;;;568105;248;24084;-79
2022/06/27 03:03:43;;;;;;;9.73;8.30;;;19.20;99.90;18.70;100673;;;;578610;248;24144;-82
2022/06/27 03:06:11;;;;;;;8.33;7.63;;;19.20;99.90;18.80;100677;;;;570199;248;24077;-81
2022/06/27 03:08:46;;;;;;;9.47;8.07;;;19.50;99.90;19.00;100678;;;;567859;248;24111;-78
2022/06/27 03:11:17;;;;;;;9.83;7.80;;;19.60;99.90;19.10;100680;;;;576052;248;24127;-78
2022/06/27 03:13:45;;;;;;;8.90;8.00;;;19.60;99.90;19.20;100677;;;;575711;248;24129;-78
2022/06/27 03:16:15;;;;;;;8.67;7.37;;;19.70;99.90;19.60;100683;;;;569715;248;24085;-79
2022/06/27 03:18:46;;;;;;;8.33;7.13;;;20.00;99.90;20.30;100686;;;;569996;248;24141;-84
2022/06/27 03:21:11;;;;;;;8.03;7.37;;;20.60;99.90;21.00;100687;;;;578252;247;24106;-86
2022/06/27 03:23:39;;;;;;;8.00;7.20;;;21.30;99.90;21.60;100685;;;;567841;248;24194;-86
2022/06/27 03:26:07;;;;;;;12.07;7.73;;;21.90;99.90;22.20;100694;;;;569707;248;24137;-84
2022/06/27 03:28:38;;;;;;;10.63;7.50;;;22.50;99.90;22.80;100696;;;;567617;248;24087;-81
2022/06/27 03:31:04;;;;;;;14.30;6.57;;;23.80;99.90;23.40;100695;;;;569434;248;24103;-79
2022/06/27 03:33:32;;;;;;;8.40;6.93;;;23.70;99.90;24.00;100693;;;;569625;248;24073;-80
2022/06/27 03:35:59;;;;;;;8.67;6.63;;;24.40;99.90;24.50;100695;;;;566820;248;24117;-78
2022/06/27 03:38:27;;;;;;;7.30;6.70;;;24.90;99.90;25.10;100697;;;;562633;248;35385;-79
2022/06/27 03:40:57;;;;;;;7.77;6.97;;;25.50;99.90;25.40;100690;;;;567562;248;24177;-77
2022/06/27 03:43:26;;;;;;;8.13;7.10;;;25.90;99.90;25.80;100692;;;;567557;248;24084;-77
2022/06/27 03:45:51;;;;;;;10.00;7.30;;;26.40;99.90;26.30;100702;;;;569691;248;23134;-78
2022/06/27 03:51:06;;;;;;;7.00;6.50;;;27.40;99.90;27.40;100699;;;;569289;247;23183;-78
2022/06/27 03:53:33;;;;;;;10.55;6.30;;;28.00;99.90;28.00;100708;;;;569356;248;23095;-81
2022/06/27 03:56:01;;;;;;;6.90;6.20;;;28.50;99.90;28.30;100703;;;;569317;248;23203;-79
2022/06/27 03:58:29;;;;;;;7.78;6.12;;;28.90;99.90;28.80;100711;;;;567291;248;23087;-79
2022/06/27 04:00:57;;;;;;;6.32;5.75;;;29.40;99.90;29.30;100713;;;;567192;248;23112;-79
2022/06/27 04:03:25;;;;;;;7.10;5.55;;;29.90;99.20;29.90;100715;;;;570249;247;23125;-78
2022/06/27 04:05:52;;;;;;;7.00;5.53;;;30.50;97.40;30.40;100715;;;;568387;248;24116;-79
2022/06/27 04:08:20;;;;;;;12.68;6.35;;;31.00;94.60;30.70;100724;;;;568221;248;23129;-79
2022/06/27 04:10:48;;;;;;;6.70;5.68;;;31.40;92.20;31.10;100719;;;;568061;248;23155;-79
2022/06/27 04:13:16;;;;;;;6.28;5.68;;;31.80;90.50;31.40;100716;;;;567774;248;23104;-79
2022/06/27 04:15:44;;;;;;;6.15;5.75;;;32.20;86.70;31.80;100713;;;;567796;248;23093;-78
2022/06/27 04:18:12;;;;;;;6.45;5.80;;;32.50;83.40;32.20;100724;;;;567622;248;23129;-79
2022/06/27 04:20:42;;;;;;;6.45;5.80;;;33.10;77.50;32.30;100729;;;;567709;248;23121;-77
2022/06/27 04:23:09;;;;;;;7.90;5.93;;;33.50;75.90;32.70;100721;;;;569585;248;24159;-79
2022/06/27 04:25:37;;;;;;;6.07;5.45;;;33.40;75.80;33.10;100734;;;;567604;248;23195;-80
2022/06/27 04:28:05;;;;;;;5.95;5.40;;;34.00;74.80;33.70;100736;;;;567761;248;23093;-78
2022/06/27 04:30:33;;;;;;;5.90;5.50;;;34.40;72.00;34.10;100733;;;;570375;248;23114;-79
2022/06/27 04:33:01;;;;;;;9.32;5.85;;;34.90;68.70;34.50;100742;;;;570118;248;24164;-80
2022/06/27 04:35:29;;;;;;;5.82;5.30;;;35.30;67.00;35.00;100737;;;;568000;248;23143;-80
2022/06/27 04:37:57;;;;;;;9.38;6.18;;;35.70;64.90;35.20;100747;;;;568096;248;23101;-77
2022/06/27 04:40:25;;;;;;;8.23;6.07;;;36.10;63.80;35.70;100745;;;;567777;248;23172;-80
2022/06/27 04:42:53;;;;;;;7.75;5.95;;;36.60;63.10;36.40;100750;;;;569733;248;24116;-79
2022/06/27 04:45:21;;;;;;;9.15;5.97;;;37.30;60.40;37.00;100753;;;;567593;248;24166;-81
2022/06/27 04:47:49;;;;;;;5.28;4.80;;;37.90;59.10;37.60;100749;;;;567566;248;23144;-80
2022/06/27 04:50:17;;;;;;;5.82;5.50;;;38.50;56.60;38.10;100759;;;;569472;248;24130;-79
2022/06/27 04:52:44;;;;;;;8.68;5.80;;;39.10;55.60;38.70;100753;;;;564311;248;35256;-80
2022/06/27 04:55:12;;;;;;;6.35;5.85;;;39.70;54.00;39.20;100755;;;;569362;248;23145;-78
2022/06/27 04:57:42;;;;;;;5.72;5.22;;;40.20;52.20;39.40;100763;;;;567291;248;23091;-78
2022/06/27 05:00:09;;;;;;;8.20;5.32;;;40.50;51.70;39.70;100766;;;;569361;248;23150;-78
2022/06/27 05:02:38;;;;;;;8.20;5.68;;;41.20;50.50;40.10;100772;;;;569507;248;23123;-79
2022/06/27 05:05:07;;;;;;;8.10;5.18;;;41.60;50.70;40.50;100767;;;;567251;248;23111;-81
2022/06/27 05:07:38;;;;;;;6.40;5.82;;;41.50;49.90;40.90;100771;;;;569513;248;23122;-79
2022/06/27 05:10:03;;;;;;;6.00;5.50;;;42.00;49.00;41.40;100774;;;;569422;248;23119;-80
2022/06/27 05:12:32;;;;;;;9.77;8.73;;;42.90;47.20;42.00;100774;;;;569388;248;23099;-79
2022/06/27 05:15:00;;;;;;;8.63;6.12;;;43.30;46.40;42.30;100776;;;;570173;247;23087;-79
2022/06/27 05:17:28;;;;;;;15.93;6.93;;;43.30;46.40;42.60;100777;;;;568372;248;23087;-80
2022/06/27 05:19:56;;;;;;;39.42;11.07;;;43.60;46.80;43.10;100782;;;;570427;248;23093;-80
2022/06/27 05:22:25;;;;;;;21.80;7.80;;;44.30;45.40;43.30;100786;;;;568119;248;23086;-78
2022/06/27 05:24:56;;;;;;;39.60;9.45;;;44.20;45.30;44.00;100785;;;;568415;248;23104;-79
2022/06/27 05:27:22;;;;;;;50.60;10.23;;;44.90;44.30;44.30;100779;;;;569952;248;23089;-82
2022/06/27 05:29:50;;;;;;;20.10;6.45;;;45.60;42.70;44.70;100781;;;;569935;248;23094;-80
2022/06/27 05:32:18;;;;;;;35.63;8.30;;;45.70;41.80;44.80;100787;;;;568083;248;23130;-82
2022/06/27 05:34:48;;;;;;;18.17;6.75;;;45.90;41.60;44.90;100783;;;;567946;248;23089;-79
2022/06/27 05:37:19;;;;;;;17.95;6.15;;;45.90;41.60;45.10;100782;;;;567993;248;23105;-79
2022/06/27 05:39:45;;;;;;;5.65;5.15;;;46.10;41.70;45.70;100785;;;;578761;247;24111;-80
2022/06/27 05:42:10;;;;;;;11.35;6.00;;;46.40;42.10;46.20;100791;;;;567911;248;23091;-78
2022/06/27 05:44:38;;;;;;;9.55;5.55;;;46.90;40.60;46.50;100787;;;;569890;248;23139;-78
2022/06/27 05:47:07;;;;;;;8.32;5.68;;;47.40;39.90;46.90;100792;;;;567821;248;23090;-79
2022/06/27 05:49:34;;;;;;;8.45;6.20;;;47.70;39.80;47.40;100797;;;;567631;248;23110;-80
2022/06/27 05:52:02;;;;;;;20.27;5.87;;;48.10;38.90;47.30;100797;;;;569333;248;24140;-79
2022/06/27 05:54:30;;;;;;;7.70;5.57;;;48.30;38.90;47.50;100797;;;;564798;248;35302;-81
2022/06/27 05:56:58;;;;;;;11.48;5.68;;;48.30;38.70;47.90;100801;;;;567651;248;23199;-79
2022/06/27 05:59:26;;;;;;;9.68;5.70;;;48.60;38.50;47.80;100802;;;;569614;248;23125;-82
2022/06/27 06:01:54;;;;;;;10.10;5.62;;;48.70;38.40;48.20;100808;;;;567587;248;23140;-80
2022/06/27 06:04:22;;;;;;;11.93;5.65;;;48.90;37.80;48.50;100808;;;;567547;248;23133;-78
2022/06/27 06:06:50;;;;;;;8.13;5.22;;;49.10;37.20;48.70;100802;;;;569440;248;23110;-80
2022/06/27 06:09:17;;;;;;;7.82;5.00;;;49.30;36.80;48.70;100806;;;;567116;248;23092;-81
2022/06/27 06:11:51;;;;;;;9.70;6.07;;;49.50;36.40;48.50;100814;;;;567091;248;23146;-79
2022/06/27 06:14:15;;;;;;;7.87;5.85;;;49.30;36.80;48.70;100807;;;;568783;248;23136;-79
2022/06/27 06:16:41;;;;;;;8.75;5.12;;;49.40;36.50;48.60;100811;;;;569321;248;23092;-81
2022/06/27 06:19:10;;;;;;;6.55;5.30;;;49.60;36.00;49.00;100806;;;;567352;248;23103;-80
2022/06/27 06:21:39;;;;;;;18.98;6.05;;;49.90;36.20;49.30;100810;;;;569482;248;23090;-78
2022/06/27 06:24:08;;;;;;;10.93;5.07;;;50.10;36.10;49.50;100809;;;;569464;248;23115;-80
2022/06/27 06:26:35;;;;;;;9.83;6.10;;;50.10;36.10;49.60;100819;;;;565340;247;35296;-79
2022/06/27 06:29:12;;;;;;;9.90;5.53;;;50.30;35.80;49.20;100817;;;;570567;248;23112;-79
2022/06/27 06:31:34;;;;;;;8.13;5.50;;;50.10;35.70;49.30;100817;;;;565027;248;35359;-80
2022/06/27 06:34:02;;;;;;;12.55;5.00;;;50.00;35.60;49.50;100811;;;;568379;248;23086;-78
2022/06/27 06:36:30;;;;;;;15.88;5.87;;;50.00;36.60;50.20;100814;;;;568211;248;23141;-78
2022/06/27 06:38:57;;;;;;;9.52;5.30;;;50.50;36.00;51.00;100814;;;;565387;248;35414;-78
2022/06/27 06:41:25;;;;;;;8.55;5.22;;;51.20;34.80;50.80;100814;;;;565335;248;36078;-78
2022/06/27 06:43:54;;;;;;;11.15;4.72;;;51.40;34.40;50.60;100812;;;;568076;248;23151;-78
2022/06/27 06:46:21;;;;;;;6.60;4.60;;;51.30;34.40;50.20;100804;;;;567864;248;23071;-78
2022/06/27 06:48:49;;;;;;;7.78;4.60;;;51.10;34.20;50.00;100803;;;;568176;244;23085;-78
2022/06/27 06:51:21;;;;;;;6.35;5.00;;;50.70;34.80;50.20;100808;;;;568121;248;23105;-79
2022/06/27 06:53:46;;;;;;;10.15;6.95;;;50.70;34.80;50.50;100802;;;;570084;248;23132;-80
2022/06/27 06:56:14;;;;;;;11.48;6.90;;;50.90;35.00;50.70;100802;;;;570790;248;23183;-88
2022/06/27 06:58:42;;;;;;;18.35;10.98;;;51.50;35.20;51.30;100795;;;;570593;248;23105;-83
2022/06/27 07:01:10;;;;;;;18.60;12.73;;;51.50;35.20;51.40;100791;;;;568476;248;23091;-85
2022/06/27 07:03:38;;;;;;;17.15;10.85;;;51.80;34.80;51.70;100789;;;;567609;248;23128;-84
2022/06/27 07:06:06;;;;;;;21.25;18.80;;;52.10;34.90;51.90;100792;;;;567691;248;24228;-80
2022/06/27 07:08:36;;;;;;;17.60;15.88;;;52.40;34.00;51.80;100793;;;;567611;248;24131;-79
2022/06/27 07:11:03;;;;;;;19.08;15.77;;;52.20;33.90;51.70;100793;;;;569614;248;23107;-79
2022/06/27 07:13:31;;;;;;;10.68;9.27;;;52.20;33.90;51.40;100793;;;;567541;248;24132;-79
2022/06/27 07:15:59;;;;;;;12.43;6.53;;;52.20;33.60;50.90;100794;;;;562664;248;35491;-80
2022/06/27 07:18:28;;;;;;;6.70;6.10;;;51.80;33.70;50.40;100799;;;;567429;248;24129;-79
2022/06/27 07:20:55;;;;;;;10.93;9.93;;;51.50;34.10;50.00;100796;;;;567386;248;24124;-79
2022/06/27 07:23:24;;;;;;;25.23;21.25;;;50.70;35.00;49.90;100797;;;;567474;248;23132;-78
2022/06/27 07:25:52;;;;;;;25.23;21.70;;;50.70;35.00;50.10;100788;;;;567505;248;24196;-79
2022/06/27 07:28:22;;;;;;;16.52;14.82;;;50.60;35.40;50.20;100786;;;;567474;248;24281;-79
2022/06/27 07:30:48;;;;;;;18.77;13.65;;;50.70;35.00;49.70;100784;;;;569669;248;23135;-80
2022/06/27 07:33:16;;;;;;;18.08;16.37;;;50.50;34.80;48.90;100780;;;;567592;248;24124;-79
2022/06/27 07:35:44;;;;;;;15.68;13.27;;;49.90;35.40;48.30;100784;;;;569500;248;23110;-80
2022/06/27 07:38:12;;;;;;;10.45;9.35;;;49.40;35.60;48.10;100787;;;;567955;247;23103;-79
2022/06/27 07:40:39;;;;;;;17.45;14.10;;;49.10;36.00;47.50;100785;;;;565814;248;35303;-80
2022/06/27 07:43:09;;;;;;;23.15;15.95;;;48.60;36.70;47.60;100788;;;;570181;248;23142;-80
2022/06/27 07:45:38;;;;;;;20.58;18.42;;;48.40;37.10;48.10;100790;;;;569933;248;23113;-78
2022/06/27 07:48:03;;;;;;;22.65;17.98;;;48.60;36.90;47.70;100788;;;;569884;248;23108;-84
2022/06/27 07:50:37;;;;;;;16.67;13.45;;;48.40;37.00;47.20;100790;;;;570008;248;23115;-80
2022/06/27 07:53:14;;;;;;;20.52;11.95;;;48.00;37.40;47.90;100782;;;;570219;248;23140;-80
2022/06/27 07:55:47;;;;;;;11.85;9.90;;;48.30;37.60;48.10;100785;;;;570166;248;23106;-80
2022/06/27 07:58:16;;;;;;;15.20;10.43;;;48.60;37.30;48.30;100785;;;;570038;248;23129;-81
2022/06/27 08:00:47;;;;;;;15.55;10.57;;;49.00;36.80;48.10;100785;;;;566007;248;23118;-82
2022/06/27 08:06:04;;;;;;;8.60;7.95;;;48.50;36.80;46.50;100782;;;;570531;248;23106;-82
2022/06/27 08:08:31;;;;;;;10.40;7.53;;;47.90;37.50;45.80;100784;;;;565650;248;35356;-81
2022/06/27 08:10:56;;;;;;;12.95;10.73;;;47.20;38.30;45.60;100776;;;;569869;248;23246;-80
2022/06/27 08:13:26;;;;;;;11.30;9.30;;;46.80;38.80;45.80;100775;;;;567999;248;23139;-79
2022/06/27 08:15:55;;;;;;;14.75;10.70;;;46.70;39.20;46.00;100784;;;;570197;248;23114;-83
2022/06/27 08:18:20;;;;;;;20.40;11.68;;;46.70;39.10;46.10;100772;;;;570229;248;23226;-86
2022/06/27 08:20:48;;;;;;;14.35;10.68;;;46.90;39.10;46.10;100768;;;;568150;248;23123;-84
2022/06/27 08:23:20;;;;;;;7.35;6.78;;;46.90;39.00;46.40;100770;;;;567918;248;24145;-85
2022/06/27 08:25:46;;;;;;;8.00;7.32;;;47.20;38.60;46.40;100770;;;;569685;248;24167;-85
2022/06/27 08:28:15;;;;;;;17.05;9.07;;;47.40;38.70;46.50;100766;;;;569782;248;24232;-85
2022/06/27 08:30:45;;;;;;;9.10;7.85;;;47.60;38.40;46.90;100765;;;;567516;248;24216;-85
2022/06/27 08:33:12;;;;;;;9.20;5.87;;;47.50;38.00;46.60;100761;;;;569777;248;23111;-86
2022/06/27 08:35:39;;;;;;;14.05;5.97;;;47.60;38.10;46.20;100757;;;;567236;248;23102;-86
2022/06/27 08:38:06;;;;;;;8.88;5.70;;;47.30;38.40;46.40;100759;;;;575538;248;23138;-84
2022/06/27 08:40:34;;;;;;;7.53;6.03;;;47.40;38.30;46.80;100763;;;;578094;248;23123;-84
2022/06/27 08:43:02;;;;;;;5.32;4.80;;;47.50;38.30;47.50;100761;;;;569710;248;23097;-83
2022/06/27 08:45:30;;;;;;;7.85;4.10;;;48.50;37.00;47.70;100762;;;;578474;247;23114;-84
2022/06/27 08:48:04;;;;;;;5.00;3.65;;;48.40;37.50;47.60;100764;;;;567560;248;23181;-85
2022/06/27 08:50:26;;;;;;;5.90;3.50;;;48.50;37.00;48.50;100756;;;;579499;243;23144;-81
2022/06/27 08:52:58;;;;;;;16.73;4.72;;;49.20;37.30;48.70;100758;;;;570786;248;23193;-80
2022/06/27 08:55:22;;;;;;;4.87;3.83;;;49.60;35.70;48.50;100763;;;;570367;248;23119;-81
2022/06/27 08:57:51;;;;;;;7.10;3.55;;;49.30;36.10;47.80;100758;;;;568354;248;23132;-81
2022/06/27 09:00:19;;;;;;;3.80;3.50;;;49.20;36.00;47.50;100751;;;;570170;248;24139;-84
2022/06/27 09:02:46;;;;;;;4.55;3.65;;;49.00;36.50;47.50;100763;;;;570436;248;23152;-82
2022/06/27 09:05:21;;;;;;;4.65;3.87;;;48.80;36.70;47.10;100760;;;;567688;248;23102;-81
2022/06/27 09:07:51;;;;;;;8.65;4.32;;;48.40;36.40;47.20;100762;;;;577537;248;23103;-78
2022/06/27 09:10:29;;;;;;;8.43;3.83;;;48.30;36.80;47.70;100751;;;;569851;248;23099;-81
2022/06/27 09:12:56;;;;;;;10.85;4.35;;;48.60;36.40;48.30;100758;;;;569520;248;23114;-77
2022/06/27 09:15:48;;;;;;;8.07;3.60;;;49.30;35.90;48.80;100752;;;;566932;248;23126;-80
2022/06/27 09:18:16;;;;;;;4.50;4.15;;;49.70;35.30;48.70;100749;;;;566827;248;23170;-83
2022/06/27 09:21:05;;;;;;;3.90;3.70;;;49.90;35.30;48.90;100753;;;;569535;248;23121;-83
2022/06/27 09:23:54;;;;;;;12.50;4.32;;;50.00;35.10;49.30;100750;;;;569764;248;23103;-82
2022/06/27 09:26:24;;;;;;;4.62;3.40;;;50.30;35.00;49.30;100739;;;;569548;248;23102;-78
2022/06/27 09:29:08;;;;;;;21.40;4.67;;;50.60;34.40;49.40;100744;;;;564104;248;35321;-83
2022/06/27 09:31:37;;;;;;;12.52;4.82;;;50.70;34.30;49.00;100731;;;;569470;248;23118;-83
2022/06/27 09:34:21;;;;;;;7.75;3.80;;;50.50;34.60;49.60;100746;;;;575663;248;23106;-84
2022/06/27 09:36:49;;;;;;;10.38;4.00;;;50.70;34.90;50.00;100740;;;;569422;248;23110;-80
2022/06/27 09:39:31;;;;;;;8.25;4.20;;;51.10;34.40;50.80;100737;;;;569695;248;23105;-82
2022/06/27 09:42:14;;;;;;;4.80;3.87;;;51.80;33.80;52.20;100730;;;;566661;248;23095;-87
2022/06/27 09:44:42;;;;;;;3.87;3.53;;;53.00;32.70;52.00;100730;;;;572455;248;23115;-81
2022/06/27 09:47:11;;;;;;;11.38;3.72;;;53.50;32.00;51.70;100729;;;;569992;248;23139;-81
2022/06/27 09:49:42;;;;;;;6.87;4.40;;;53.30;32.10;51.40;100729;;;;569575;248;23138;-80
2022/06/27 09:52:06;;;;;;;3.78;3.42;;;53.00;31.60;51.40;100716;;;;569594;248;23124;-81
2022/06/27 09:54:38;;;;;;;10.23;4.50;;;52.90;31.90;51.80;100719;;;;569296;248;23099;-81
2022/06/27 09:57:04;;;;;;;8.82;4.50;;;53.20;32.30;49.90;100730;;;;569317;248;23122;-81
2022/06/27 09:59:31;;;;;;;5.85;4.03;;;52.20;32.70;48.50;100728;;;;572439;247;23099;-79
2022/06/27 10:02:00;;;;;;;6.87;4.37;;;50.70;33.70;46.70;100712;;;;570923;247;23099;-81
2022/06/27 10:04:28;;;;;;;6.40;4.30;;;48.80;35.20;45.40;100714;;;;573065;248;25321;-82
2022/06/27 10:06:55;;;;;;;4.10;3.80;;;47.20;36.50;44.10;100717;;;;570448;248;23098;-83
2022/06/27 10:09:24;;;;;;;5.10;3.78;;;45.50;38.20;44.50;100717;;;;579125;248;23116;-78
2022/06/27 10:12:21;;;;;;;6.10;4.05;;;45.40;38.10;45.20;100707;;;;570329;248;23086;-85
2022/06/27 10:14:47;;;;;;;6.78;3.70;;;46.00;37.80;45.40;100707;;;;578652;245;23362;-82
2022/06/27 10:17:18;;;;;;;4.10;3.28;;;46.40;37.40;45.70;100707;;;;568367;248;23110;-77
2022/06/27 10:20:01;;;;;;;9.82;3.80;;;46.60;37.00;45.30;100707;;;;569979;248;23103;-84
2022/06/27 10:22:29;;;;;;;8.63;3.85;;;46.60;36.90;44.80;100724;;;;569955;248;23130;-81
2022/06/27 10:24:57;;;;;;;4.97;3.53;;;46.00;37.90;45.10;100704;;;;567733;248;23133;-79
2022/06/27 10:27:31;;;;;;;9.65;3.80;;;46.20;38.00;44.00;100708;;;;567339;248;24159;-83
2022/06/27 10:29:59;;;;;;;15.13;4.28;;;45.60;38.10;42.60;100705;;;;570043;248;23199;-80
2022/06/27 10:32:43;;;;;;;18.12;4.47;;;44.20;39.10;41.70;100703;;;;570054;248;23163;-85
2022/06/27 10:35:14;;;;;;;6.15;3.67;;;43.20;40.70;41.30;100699;;;;575903;248;24180;-80
2022/06/27 10:37:38;;;;;;;4.93;3.62;;;42.60;41.50;41.00;100693;;;;570250;248;23100;-80
2022/06/27 10:40:21;;;;;;;4.53;3.83;;;42.20;42.20;40.50;100707;;;;570120;248;23118;-85
2022/06/27 10:42:54;;;;;;;8.93;4.37;;;41.60;42.70;39.30;100712;;;;570114;248;23143;-84
2022/06/27 10:45:27;;;;;;;7.50;3.87;;;40.50;43.80;38.60;100711;;;;569773;248;23123;-85
2022/06/27 10:47:57;;;;;;;12.30;3.72;;;39.50;45.10;38.10;100701;;;;569869;248;23092;-82
2022/06/27 10:50:28;;;;;;;5.75;3.17;;;38.70;43.40;37.40;100686;;;;577811;244;23129;-81
2022/06/27 10:53:19;;;;;;;10.55;3.80;;;37.90;44.50;37.10;100684;;;;572186;248;23107;-82
2022/06/27 10:55:47;;;;;;;8.45;3.47;;;37.40;45.60;36.80;100695;;;;569947;248;23086;-81
2022/06/27 10:58:24;;;;;;;11.45;4.40;;;37.00;47.40;36.30;100692;;;;569748;248;23110;-81
2022/06/27 11:00:52;;;;;;;6.75;3.97;;;36.60;47.10;35.60;100685;;;;577960;248;23113;-84
2022/06/27 11:03:25;;;;;;;13.32;3.67;;;36.00;46.80;35.00;100682;;;;567482;248;24158;-81
2022/06/27 11:05:59;;;;;;;3.47;3.17;;;35.40;48.30;34.80;100692;;;;566503;248;23123;-83
2022/06/27 11:08:27;;;;;;;2.75;2.58;;;35.10;48.50;34.50;100673;;;;569106;248;23130;-85
2022/06/27 11:10:55;;;;;;;8.57;3.25;;;34.80;48.50;34.30;100672;;;;569195;248;23106;-81
2022/06/27 11:13:38;;;;;;;8.90;3.42;;;34.60;48.40;33.90;100672;;;;570369;247;23098;-79
2022/06/27 11:16:09;;;;;;;10.75;3.80;;;34.30;48.90;33.60;100676;;;;570523;248;23126;-82
2022/06/27 11:18:47;;;;;;;4.00;3.17;;;34.00;50.20;33.50;100677;;;;569890;248;23165;-83
2022/06/27 11:21:15;;;;;;;5.12;3.60;;;33.80;51.10;33.30;100671;;;;570030;248;23138;-80
2022/06/27 11:23:52;;;;;;;8.68;3.37;;;33.60;51.20;33.30;100671;;;;567472;248;24123;-79